aviador You're here:

KAWO Decoded Metar

ARLINGTON MUNI in WA, USA
Report Time2018-06-24 00:56:00
UTC Time2018-06-24 01:02:48
Flight Rules vfr VFR
WindVRB at 03 kt
Visibility9999 m
Phenomena:N/A
Clouds:Overcast 041 Hf
Expected CloudBase > 4,000 ft AGL from Temp-Dew spread
Ceiling4,100 ft
Temp22°C (ISA +7)
Dew Point12°C (53% RH)
AAT21.5°C
QNH1021 hPa
Density Alt906 ft
Elevation138 ft
Report Wrong Elevation
Raw Report
METAR KAWO 240056Z AUTO VRB03KT 10SM OVC041 22/12 A3016 RMK AO2 SLP215
T02170117=

Extra information for KAWO:More info

Metar Taf Metar & Taf Last 4 Metars F.Rules Stats Wind Profile Meteogram Temp Stats Airport Information Weather charts Add Link Nearby VenuesMetar ALERT Operation Metar Decoded Social comments

AIRNAV info for KAWO